sensor_id;sensor_type;location;lat;lon;timestamp;temperature;humidity
14140;DHT22;7150;53.514;9.988;2023-06-14T00:00:07;23.50;61.10
14140;DHT22;7150;53.514;9.988;2023-06-14T00:02:33;23.50;61.20
14140;DHT22;7150;53.514;9.988;2023-06-14T00:04:58;23.50;61.20
14140;DHT22;7150;53.514;9.988;2023-06-14T00:07:34;23.50;61.40
14140;DHT22;7150;53.514;9.988;2023-06-14T00:09:59;23.50;61.50
14140;DHT22;7150;53.514;9.988;2023-06-14T00:12:25;23.40;61.50
14140;DHT22;7150;53.514;9.988;2023-06-14T00:14:51;23.40;61.60
14140;DHT22;7150;53.514;9.988;2023-06-14T00:17:16;23.40;61.70
14140;DHT22;7150;53.514;9.988;2023-06-14T00:19:42;23.30;61.70
14140;DHT22;7150;53.514;9.988;2023-06-14T00:22:07;23.30;61.80
14140;DHT22;7150;53.514;9.988;2023-06-14T00:24:33;23.30;61.90
14140;DHT22;7150;53.514;9.988;2023-06-14T00:26:58;23.30;62.00
14140;DHT22;7150;53.514;9.988;2023-06-14T00:29:24;23.30;62.10
14140;DHT22;7150;53.514;9.988;2023-06-14T00:31:49;23.20;62.10
14140;DHT22;7150;53.514;9.988;2023-06-14T00:34:15;23.20;62.20
14140;DHT22;7150;53.514;9.988;2023-06-14T00:36:40;23.20;62.30
14140;DHT22;7150;53.514;9.988;2023-06-14T00:39:06;23.20;62.40
14140;DHT22;7150;53.514;9.988;2023-06-14T00:41:31;23.20;63.20
14140;DHT22;7150;53.514;9.988;2023-06-14T00:43:57;23.20;62.40
14140;DHT22;7150;53.514;9.988;2023-06-14T00:46:22;23.20;62.60
14140;DHT22;7150;53.514;9.988;2023-06-14T00:48:48;23.10;62.60
14140;DHT22;7150;53.514;9.988;2023-06-14T00:51:14;23.10;62.60
14140;DHT22;7150;53.514;9.988;2023-06-14T00:53:40;23.10;62.70
14140;DHT22;7150;53.514;9.988;2023-06-14T00:56:11;23.10;62.90
14140;DHT22;7150;53.514;9.988;2023-06-14T00:58:38;23.00;62.90
14140;DHT22;7150;53.514;9.988;2023-06-14T01:01:04;23.00;63.10
14140;DHT22;7150;53.514;9.988;2023-06-14T01:03:29;23.00;63.30
14140;DHT22;7150;53.514;9.988;2023-06-14T01:06:09;22.90;63.40
14140;DHT22;7150;53.514;9.988;2023-06-14T01:08:47;22.90;63.60
14140;DHT22;7150;53.514;9.988;2023-06-14T01:11:28;22.90;63.80
14140;DHT22;7150;53.514;9.988;2023-06-14T01:13:58;22.80;63.90
14140;DHT22;7150;53.514;9.988;2023-06-14T01:16:25;22.80;64.00
14140;DHT22;7150;53.514;9.988;2023-06-14T01:18:52;22.80;64.20
14140;DHT22;7150;53.514;9.988;2023-06-14T01:21:25;22.80;64.30
14140;DHT22;7150;53.514;9.988;2023-06-14T01:23:52;22.70;64.40
14140;DHT22;7150;53.514;9.988;2023-06-14T01:26:19;22.70;64.30
14140;DHT22;7150;53.514;9.988;2023-06-14T01:28:46;22.70;64.50
14140;DHT22;7150;53.514;9.988;2023-06-14T01:31:16;22.60;64.50
14140;DHT22;7150;53.514;9.988;2023-06-14T01:33:43;22.60;64.90
14140;DHT22;7150;53.514;9.988;2023-06-14T01:36:09;22.60;65.50
14140;DHT22;7150;53.514;9.988;2023-06-14T01:38:36;22.60;65.60
14140;DHT22;7150;53.514;9.988;2023-06-14T01:41:03;22.60;66.00
14140;DHT22;7150;53.514;9.988;2023-06-14T01:43:30;22.60;66.20
14140;DHT22;7150;53.514;9.988;2023-06-14T01:45:57;22.60;65.60
14140;DHT22;7150;53.514;9.988;2023-06-14T01:48:25;22.50;65.90
14140;DHT22;7150;53.514;9.988;2023-06-14T01:50:52;22.50;65.60
14140;DHT22;7150;53.514;9.988;2023-06-14T01:53:17;22.50;66.00
14140;DHT22;7150;53.514;9.988;2023-06-14T01:55:43;22.50;65.40
14140;DHT22;7150;53.514;9.988;2023-06-14T01:58:10;22.50;65.50
14140;DHT22;7150;53.514;9.988;2023-06-14T02:00:36;22.50;65.50
14140;DHT22;7150;53.514;9.988;2023-06-14T02:03:02;22.50;65.50
14140;DHT22;7150;53.514;9.988;2023-06-14T02:05:29;22.50;65.60
14140;DHT22;7150;53.514;9.988;2023-06-14T02:07:55;22.40;65.60
14140;DHT22;7150;53.514;9.988;2023-06-14T02:10:21;22.40;65.70
14140;DHT22;7150;53.514;9.988;2023-06-14T02:12:46;22.40;65.80
14140;DHT22;7150;53.514;9.988;2023-06-14T02:15:12;22.30;65.80
14140;DHT22;7150;53.514;9.988;2023-06-14T02:17:45;22.30;65.90
14140;DHT22;7150;53.514;9.988;2023-06-14T02:20:12;22.30;66.00
14140;DHT22;7150;53.514;9.988;2023-06-14T02:22:38;22.30;66.20
14140;DHT22;7150;53.514;9.988;2023-06-14T02:25:04;22.20;66.30
14140;DHT22;7150;53.514;9.988;2023-06-14T02:27:30;22.20;66.50
14140;DHT22;7150;53.514;9.988;2023-06-14T02:29:56;22.10;66.50
14140;DHT22;7150;53.514;9.988;2023-06-14T02:32:21;22.10;66.60
14140;DHT22;7150;53.514;9.988;2023-06-14T02:34:47;22.10;66.70
14140;DHT22;7150;53.514;9.988;2023-06-14T02:37:15;22.10;66.80
14140;DHT22;7150;53.514;9.988;2023-06-14T02:39:41;22.10;67.00
14140;DHT22;7150;53.514;9.988;2023-06-14T02:42:07;22.10;67.10
14140;DHT22;7150;53.514;9.988;2023-06-14T02:44:32;22.00;67.00
14140;DHT22;7150;53.514;9.988;2023-06-14T02:46:58;22.00;67.10
14140;DHT22;7150;53.514;9.988;2023-06-14T02:49:25;22.00;67.20
14140;DHT22;7150;53.514;9.988;2023-06-14T02:51:51;22.00;67.30
14140;DHT22;7150;53.514;9.988;2023-06-14T02:54:16;22.00;67.20
14140;DHT22;7150;53.514;9.988;2023-06-14T02:56:42;22.00;67.30
14140;DHT22;7150;53.514;9.988;2023-06-14T02:59:08;21.90;67.30
14140;DHT22;7150;53.514;9.988;2023-06-14T03:01:34;22.00;67.50
14140;DHT22;7150;53.514;9.988;2023-06-14T03:04:01;21.90;67.50
14140;DHT22;7150;53.514;9.988;2023-06-14T03:06:29;21.90;67.50
14140;DHT22;7150;53.514;9.988;2023-06-14T03:08:56;21.90;67.60
14140;DHT22;7150;53.514;9.988;2023-06-14T03:11:27;21.80;67.70
14140;DHT22;7150;53.514;9.988;2023-06-14T03:13:53;21.80;68.50
14140;DHT22;7150;53.514;9.988;2023-06-14T03:16:20;21.80;68.70
14140;DHT22;7150;53.514;9.988;2023-06-14T03:18:50;21.80;68.10
14140;DHT22;7150;53.514;9.988;2023-06-14T03:21:15;21.80;68.20
14140;DHT22;7150;53.514;9.988;2023-06-14T03:23:43;21.80;68.30
14140;DHT22;7150;53.514;9.988;2023-06-14T03:26:08;21.80;68.40
14140;DHT22;7150;53.514;9.988;2023-06-14T03:28:34;21.70;68.40
14140;DHT22;7150;53.514;9.988;2023-06-14T03:30:59;21.70;68.60
14140;DHT22;7150;53.514;9.988;2023-06-14T03:33:25;21.70;68.70
14140;DHT22;7150;53.514;9.988;2023-06-14T03:35:51;21.70;68.70
14140;DHT22;7150;53.514;9.988;2023-06-14T03:38:17;21.70;68.80
14140;DHT22;7150;53.514;9.988;2023-06-14T03:40:42;21.70;68.90
14140;DHT22;7150;53.514;9.988;2023-06-14T03:43:09;21.70;69.00
14140;DHT22;7150;53.514;9.988;2023-06-14T03:45:35;21.70;69.10
14140;DHT22;7150;53.514;9.988;2023-06-14T03:48:01;21.80;69.10
14140;DHT22;7150;53.514;9.988;2023-06-14T03:50:26;21.80;69.10
14140;DHT22;7150;53.514;9.988;2023-06-14T03:52:52;21.80;69.10
14140;DHT22;7150;53.514;9.988;2023-06-14T03:55:18;21.80;69.10
14140;DHT22;7150;53.514;9.988;2023-06-14T03:57:44;21.80;69.10
14140;DHT22;7150;53.514;9.988;2023-06-14T04:00:10;21.80;69.30
14140;DHT22;7150;53.514;9.988;2023-06-14T04:02:36;21.80;69.40
14140;DHT22;7150;53.514;9.988;2023-06-14T04:05:02;21.80;69.50
14140;DHT22;7150;53.514;9.988;2023-06-14T04:07:28;21.80;69.70
14140;DHT22;7150;53.514;9.988;2023-06-14T04:09:54;21.80;69.90
14140;DHT22;7150;53.514;9.988;2023-06-14T04:12:20;21.80;70.00
14140;DHT22;7150;53.514;9.988;2023-06-14T04:14:46;21.80;70.10
14140;DHT22;7150;53.514;9.988;2023-06-14T04:17:11;21.80;70.20
14140;DHT22;7150;53.514;9.988;2023-06-14T04:19:37;21.80;70.30
14140;DHT22;7150;53.514;9.988;2023-06-14T04:22:03;21.80;70.40
14140;DHT22;7150;53.514;9.988;2023-06-14T04:24:28;21.80;70.40
14140;DHT22;7150;53.514;9.988;2023-06-14T04:27:00;21.80;70.40
14140;DHT22;7150;53.514;9.988;2023-06-14T04:29:26;21.90;70.60
14140;DHT22;7150;53.514;9.988;2023-06-14T04:31:54;21.90;70.60
14140;DHT22;7150;53.514;9.988;2023-06-14T04:34:20;21.90;70.70
14140;DHT22;7150;53.514;9.988;2023-06-14T04:36:47;21.90;70.70
14140;DHT22;7150;53.514;9.988;2023-06-14T04:39:19;21.90;70.80
14140;DHT22;7150;53.514;9.988;2023-06-14T04:41:44;22.00;71.00
14140;DHT22;7150;53.514;9.988;2023-06-14T04:44:10;22.00;71.00
14140;DHT22;7150;53.514;9.988;2023-06-14T04:46:38;22.10;71.00
14140;DHT22;7150;53.514;9.988;2023-06-14T04:49:20;22.10;70.90
14140;DHT22;7150;53.514;9.988;2023-06-14T04:51:45;22.10;70.90
14140;DHT22;7150;53.514;9.988;2023-06-14T04:54:12;22.20;71.00
14140;DHT22;7150;53.514;9.988;2023-06-14T04:56:41;22.20;71.00
14140;DHT22;7150;53.514;9.988;2023-06-14T04:59:07;22.20;70.90
14140;DHT22;7150;53.514;9.988;2023-06-14T05:01:34;22.30;71.00
14140;DHT22;7150;53.514;9.988;2023-06-14T05:03:59;22.30;70.90
14140;DHT22;7150;53.514;9.988;2023-06-14T05:06:25;22.30;70.90
14140;DHT22;7150;53.514;9.988;2023-06-14T05:08:53;22.30;70.80
14140;DHT22;7150;53.514;9.988;2023-06-14T05:11:18;22.40;70.80
14140;DHT22;7150;53.514;9.988;2023-06-14T05:13:44;22.40;70.60
14140;DHT22;7150;53.514;9.988;2023-06-14T05:16:11;22.50;70.60
14140;DHT22;7150;53.514;9.988;2023-06-14T05:18:37;22.50;70.50
14140;DHT22;7150;53.514;9.988;2023-06-14T05:21:03;22.50;70.40
14140;DHT22;7150;53.514;9.988;2023-06-14T05:23:30;22.60;70.50
14140;DHT22;7150;53.514;9.988;2023-06-14T05:25:56;22.60;70.40
14140;DHT22;7150;53.514;9.988;2023-06-14T05:28:22;22.60;70.30
14140;DHT22;7150;53.514;9.988;2023-06-14T05:30:48;22.60;70.30
14140;DHT22;7150;53.514;9.988;2023-06-14T05:33:13;22.70;70.20
14140;DHT22;7150;53.514;9.988;2023-06-14T05:35:39;22.70;70.00
14140;DHT22;7150;53.514;9.988;2023-06-14T05:38:04;22.80;70.10
14140;DHT22;7150;53.514;9.988;2023-06-14T05:40:31;22.80;70.80
14140;DHT22;7150;53.514;9.988;2023-06-14T05:42:56;22.90;70.20
14140;DHT22;7150;53.514;9.988;2023-06-14T05:45:21;22.90;70.10
14140;DHT22;7150;53.514;9.988;2023-06-14T05:47:47;22.90;70.00
14140;DHT22;7150;53.514;9.988;2023-06-14T05:50:13;23.00;69.90
14140;DHT22;7150;53.514;9.988;2023-06-14T05:52:38;23.00;69.70
14140;DHT22;7150;53.514;9.988;2023-06-14T05:55:04;23.00;69.40
14140;DHT22;7150;53.514;9.988;2023-06-14T05:57:30;23.10;69.30
14140;DHT22;7150;53.514;9.988;2023-06-14T05:59:55;23.10;69.30
14140;DHT22;7150;53.514;9.988;2023-06-14T06:02:21;23.10;69.10
14140;DHT22;7150;53.514;9.988;2023-06-14T06:04:46;23.10;68.70
14140;DHT22;7150;53.514;9.988;2023-06-14T06:07:12;23.20;68.50
14140;DHT22;7150;53.514;9.988;2023-06-14T06:09:37;23.20;68.20
14140;DHT22;7150;53.514;9.988;2023-06-14T06:12:05;23.30;68.00
14140;DHT22;7150;53.514;9.988;2023-06-14T06:14:32;23.30;67.70
14140;DHT22;7150;53.514;9.988;2023-06-14T06:16:57;23.30;67.70
14140;DHT22;7150;53.514;9.988;2023-06-14T06:19:23;23.40;67.80
14140;DHT22;7150;53.514;9.988;2023-06-14T06:21:48;23.40;67.80
14140;DHT22;7150;53.514;9.988;2023-06-14T06:24:14;23.40;67.70
14140;DHT22;7150;53.514;9.988;2023-06-14T06:26:39;23.50;67.50
14140;DHT22;7150;53.514;9.988;2023-06-14T06:29:05;23.50;67.00
14140;DHT22;7150;53.514;9.988;2023-06-14T06:31:31;23.50;66.40
14140;DHT22;7150;53.514;9.988;2023-06-14T06:33:56;23.60;66.20
14140;DHT22;7150;53.514;9.988;2023-06-14T06:36:22;23.60;66.00
14140;DHT22;7150;53.514;9.988;2023-06-14T06:38:48;23.60;65.80
14140;DHT22;7150;53.514;9.988;2023-06-14T06:41:13;23.60;65.60
14140;DHT22;7150;53.514;9.988;2023-06-14T06:43:39;23.60;65.30
14140;DHT22;7150;53.514;9.988;2023-06-14T06:46:05;23.70;65.20
14140;DHT22;7150;53.514;9.988;2023-06-14T06:48:30;23.70;64.90
14140;DHT22;7150;53.514;9.988;2023-06-14T06:50:56;23.80;64.80
14140;DHT22;7150;53.514;9.988;2023-06-14T06:53:21;23.80;64.80
14140;DHT22;7150;53.514;9.988;2023-06-14T06:55:48;23.80;64.70
14140;DHT22;7150;53.514;9.988;2023-06-14T06:58:14;23.80;64.60
14140;DHT22;7150;53.514;9.988;2023-06-14T07:00:39;23.80;64.70
14140;DHT22;7150;53.514;9.988;2023-06-14T07:03:06;23.90;65.00
14140;DHT22;7150;53.514;9.988;2023-06-14T07:05:31;23.90;65.10
14140;DHT22;7150;53.514;9.988;2023-06-14T07:07:57;24.00;65.30
14140;DHT22;7150;53.514;9.988;2023-06-14T07:10:23;24.00;65.00
14140;DHT22;7150;53.514;9.988;2023-06-14T07:12:50;24.00;64.50
14140;DHT22;7150;53.514;9.988;2023-06-14T07:15:15;24.10;64.30
14140;DHT22;7150;53.514;9.988;2023-06-14T07:17:41;24.10;64.00
14140;DHT22;7150;53.514;9.988;2023-06-14T07:20:08;24.20;64.00
14140;DHT22;7150;53.514;9.988;2023-06-14T07:22:39;24.20;64.50
14140;DHT22;7150;53.514;9.988;2023-06-14T07:25:07;24.20;63.30
14140;DHT22;7150;53.514;9.988;2023-06-14T07:27:33;24.20;62.90
14140;DHT22;7150;53.514;9.988;2023-06-14T07:29:59;24.30;62.60
14140;DHT22;7150;53.514;9.988;2023-06-14T07:32:24;24.30;62.60
14140;DHT22;7150;53.514;9.988;2023-06-14T07:34:50;24.30;62.60
14140;DHT22;7150;53.514;9.988;2023-06-14T07:37:16;24.40;62.40
14140;DHT22;7150;53.514;9.988;2023-06-14T07:39:41;24.40;62.20
14140;DHT22;7150;53.514;9.988;2023-06-14T07:42:07;24.40;62.00
14140;DHT22;7150;53.514;9.988;2023-06-14T07:44:33;24.40;61.80
14140;DHT22;7150;53.514;9.988;2023-06-14T07:46:58;24.50;61.60
14140;DHT22;7150;53.514;9.988;2023-06-14T07:49:25;24.50;61.60
14140;DHT22;7150;53.514;9.988;2023-06-14T07:51:51;24.50;61.70
14140;DHT22;7150;53.514;9.988;2023-06-14T07:54:16;24.60;61.70
14140;DHT22;7150;53.514;9.988;2023-06-14T07:56:42;24.60;61.50
14140;DHT22;7150;53.514;9.988;2023-06-14T07:59:08;24.60;61.30
14140;DHT22;7150;53.514;9.988;2023-06-14T08:01:34;24.70;61.20
14140;DHT22;7150;53.514;9.988;2023-06-14T08:04:00;24.70;61.20
14140;DHT22;7150;53.514;9.988;2023-06-14T08:06:25;24.70;61.30
14140;DHT22;7150;53.514;9.988;2023-06-14T08:08:51;24.80;61.20
14140;DHT22;7150;53.514;9.988;2023-06-14T08:11:17;24.80;60.90
14140;DHT22;7150;53.514;9.988;2023-06-14T08:13:42;24.80;60.70
14140;DHT22;7150;53.514;9.988;2023-06-14T08:16:08;24.90;60.70
14140;DHT22;7150;53.514;9.988;2023-06-14T08:18:33;24.90;60.70
14140;DHT22;7150;53.514;9.988;2023-06-14T08:20:59;24.90;60.60
14140;DHT22;7150;53.514;9.988;2023-06-14T08:23:24;24.90;60.50
14140;DHT22;7150;53.514;9.988;2023-06-14T08:25:50;24.90;60.30
14140;DHT22;7150;53.514;9.988;2023-06-14T08:28:15;25.00;60.20
14140;DHT22;7150;53.514;9.988;2023-06-14T08:30:42;25.00;60.00
14140;DHT22;7150;53.514;9.988;2023-06-14T08:33:08;25.00;60.00
14140;DHT22;7150;53.514;9.988;2023-06-14T08:35:33;25.10;59.90
14140;DHT22;7150;53.514;9.988;2023-06-14T08:38:02;25.10;59.90
14140;DHT22;7150;53.514;9.988;2023-06-14T08:40:30;25.10;59.90
14140;DHT22;7150;53.514;9.988;2023-06-14T08:42:55;25.30;60.00
14140;DHT22;7150;53.514;9.988;2023-06-14T08:45:22;25.20;59.60
14140;DHT22;7150;53.514;9.988;2023-06-14T08:47:48;25.20;59.50
14140;DHT22;7150;53.514;9.988;2023-06-14T08:50:20;25.20;59.40
14140;DHT22;7150;53.514;9.988;2023-06-14T08:52:45;25.20;59.20
14140;DHT22;7150;53.514;9.988;2023-06-14T08:55:14;25.30;59.20
14140;DHT22;7150;53.514;9.988;2023-06-14T08:57:43;25.30;59.10
14140;DHT22;7150;53.514;9.988;2023-06-14T09:00:09;25.40;59.00
14140;DHT22;7150;53.514;9.988;2023-06-14T09:02:38;25.40;59.00
14140;DHT22;7150;53.514;9.988;2023-06-14T09:05:10;25.40;59.00
14140;DHT22;7150;53.514;9.988;2023-06-14T09:07:37;25.50;58.90
14140;DHT22;7150;53.514;9.988;2023-06-14T09:10:11;25.50;58.80
14140;DHT22;7150;53.514;9.988;2023-06-14T09:12:37;25.50;59.00
14140;DHT22;7150;53.514;9.988;2023-06-14T09:15:03;25.60;58.70
14140;DHT22;7150;53.514;9.988;2023-06-14T09:17:38;25.60;58.60
14140;DHT22;7150;53.514;9.988;2023-06-14T09:20:05;25.70;58.60
14140;DHT22;7150;53.514;9.988;2023-06-14T09:22:33;25.70;58.60
14140;DHT22;7150;53.514;9.988;2023-06-14T09:24:59;25.70;58.60
14140;DHT22;7150;53.514;9.988;2023-06-14T09:27:28;25.80;58.50
14140;DHT22;7150;53.514;9.988;2023-06-14T09:29:54;25.80;58.40
14140;DHT22;7150;53.514;9.988;2023-06-14T09:32:21;25.90;58.30
14140;DHT22;7150;53.514;9.988;2023-06-14T09:34:47;25.90;58.20
14140;DHT22;7150;53.514;9.988;2023-06-14T09:37:17;25.90;58.00
14140;DHT22;7150;53.514;9.988;2023-06-14T09:39:51;25.90;57.80
14140;DHT22;7150;53.514;9.988;2023-06-14T09:42:17;26.00;57.70
14140;DHT22;7150;53.514;9.988;2023-06-14T09:44:47;26.00;57.60
14140;DHT22;7150;53.514;9.988;2023-06-14T09:47:15;26.00;57.60
14140;DHT22;7150;53.514;9.988;2023-06-14T09:49:41;26.10;57.50
14140;DHT22;7150;53.514;9.988;2023-06-14T09:52:07;26.10;57.40
14140;DHT22;7150;53.514;9.988;2023-06-14T09:54:43;26.10;57.20
14140;DHT22;7150;53.514;9.988;2023-06-14T09:57:16;26.20;57.10
14140;DHT22;7150;53.514;9.988;2023-06-14T09:59:45;26.20;57.10
14140;DHT22;7150;53.514;9.988;2023-06-14T10:02:25;26.20;56.70
14140;DHT22;7150;53.514;9.988;2023-06-14T10:07:35;26.30;56.80
14140;DHT22;7150;53.514;9.988;2023-06-14T10:10:03;26.30;56.90
14140;DHT22;7150;53.514;9.988;2023-06-14T10:12:30;26.40;56.90
14140;DHT22;7150;53.514;9.988;2023-06-14T10:14:56;26.40;56.80
14140;DHT22;7150;53.514;9.988;2023-06-14T10:17:49;26.40;56.60
14140;DHT22;7150;53.514;9.988;2023-06-14T10:20:33;26.50;56.60
14140;DHT22;7150;53.514;9.988;2023-06-14T10:23:19;26.50;56.60
14140;DHT22;7150;53.514;9.988;2023-06-14T10:25:49;26.50;56.60
14140;DHT22;7150;53.514;9.988;2023-06-14T10:28:20;26.50;56.50
14140;DHT22;7150;53.514;9.988;2023-06-14T10:31:08;26.60;56.40
14140;DHT22;7150;53.514;9.988;2023-06-14T10:33:55;26.60;56.20
14140;DHT22;7150;53.514;9.988;2023-06-14T10:36:30;26.60;56.30
14140;DHT22;7150;53.514;9.988;2023-06-14T10:39:07;26.60;56.30
14140;DHT22;7150;53.514;9.988;2023-06-14T10:41:38;26.60;56.40
14140;DHT22;7150;53.514;9.988;2023-06-14T10:46:58;26.70;56.30
14140;DHT22;7150;53.514;9.988;2023-06-14T10:49:44;26.70;56.10
14140;DHT22;7150;53.514;9.988;2023-06-14T10:52:14;26.80;56.20
14140;DHT22;7150;53.514;9.988;2023-06-14T10:57:34;26.80;56.10
14140;DHT22;7150;53.514;9.988;2023-06-14T11:00:01;26.80;56.30
14140;DHT22;7150;53.514;9.988;2023-06-14T11:05:49;26.90;56.20
14140;DHT22;7150;53.514;9.988;2023-06-14T11:08:51;27.00;56.20
14140;DHT22;7150;53.514;9.988;2023-06-14T11:11:22;27.00;56.40
14140;DHT22;7150;53.514;9.988;2023-06-14T11:13:51;27.10;55.70
14140;DHT22;7150;53.514;9.988;2023-06-14T11:16:17;27.10;55.60
14140;DHT22;7150;53.514;9.988;2023-06-14T11:18:46;27.20;55.10
14140;DHT22;7150;53.514;9.988;2023-06-14T11:21:16;27.20;54.80
14140;DHT22;7150;53.514;9.988;2023-06-14T11:23:43;27.20;54.80
14140;DHT22;7150;53.514;9.988;2023-06-14T11:26:13;27.20;55.00
14140;DHT22;7150;53.514;9.988;2023-06-14T11:28:40;27.20;55.00
14140;DHT22;7150;53.514;9.988;2023-06-14T11:31:07;27.30;54.90
14140;DHT22;7150;53.514;9.988;2023-06-14T11:33:33;27.40;55.00
14140;DHT22;7150;53.514;9.988;2023-06-14T11:36:02;27.50;54.70
14140;DHT22;7150;53.514;9.988;2023-06-14T11:38:27;27.60;54.50
14140;DHT22;7150;53.514;9.988;2023-06-14T11:40:53;27.70;54.50
14140;DHT22;7150;53.514;9.988;2023-06-14T11:43:19;27.80;54.50
14140;DHT22;7150;53.514;9.988;2023-06-14T11:45:48;27.90;54.30
14140;DHT22;7150;53.514;9.988;2023-06-14T11:48:14;28.00;53.90
14140;DHT22;7150;53.514;9.988;2023-06-14T11:50:40;28.10;53.60
14140;DHT22;7150;53.514;9.988;2023-06-14T11:53:06;28.20;53.50
14140;DHT22;7150;53.514;9.988;2023-06-14T11:55:36;28.30;53.40
14140;DHT22;7150;53.514;9.988;2023-06-14T11:58:02;28.60;53.30
14140;DHT22;7150;53.514;9.988;2023-06-14T12:00:28;28.90;53.20
14140;DHT22;7150;53.514;9.988;2023-06-14T12:02:55;29.40;52.40
14140;DHT22;7150;53.514;9.988;2023-06-14T12:05:21;29.80;51.80
14140;DHT22;7150;53.514;9.988;2023-06-14T12:07:47;30.10;51.40
14140;DHT22;7150;53.514;9.988;2023-06-14T12:10:14;30.30;50.80
14140;DHT22;7150;53.514;9.988;2023-06-14T12:12:40;30.40;50.30
14140;DHT22;7150;53.514;9.988;2023-06-14T12:15:08;30.50;50.10
14140;DHT22;7150;53.514;9.988;2023-06-14T12:17:37;30.80;49.40
14140;DHT22;7150;53.514;9.988;2023-06-14T12:20:10;30.80;49.30
14140;DHT22;7150;53.514;9.988;2023-06-14T12:22:37;30.60;48.70
14140;DHT22;7150;53.514;9.988;2023-06-14T12:25:04;30.40;49.10
14140;DHT22;7150;53.514;9.988;2023-06-14T12:27:29;30.10;49.50
14140;DHT22;7150;53.514;9.988;2023-06-14T12:30:02;29.90;49.80
14140;DHT22;7150;53.514;9.988;2023-06-14T12:32:28;29.60;50.10
14140;DHT22;7150;53.514;9.988;2023-06-14T12:34:54;29.30;50.50
14140;DHT22;7150;53.514;9.988;2023-06-14T12:37:20;29.20;51.20
14140;DHT22;7150;53.514;9.988;2023-06-14T12:39:46;28.90;50.90
14140;DHT22;7150;53.514;9.988;2023-06-14T12:42:11;28.80;51.40
14140;DHT22;7150;53.514;9.988;2023-06-14T12:44:38;28.70;51.80
14140;DHT22;7150;53.514;9.988;2023-06-14T12:47:09;28.70;52.00
14140;DHT22;7150;53.514;9.988;2023-06-14T12:49:35;28.70;52.00
14140;DHT22;7150;53.514;9.988;2023-06-14T12:52:00;28.70;52.10
14140;DHT22;7150;53.514;9.988;2023-06-14T12:54:26;28.70;52.10
14140;DHT22;7150;53.514;9.988;2023-06-14T12:56:52;28.60;52.20
14140;DHT22;7150;53.514;9.988;2023-06-14T12:59:18;28.50;52.20
14140;DHT22;7150;53.514;9.988;2023-06-14T13:01:43;28.40;52.30
14140;DHT22;7150;53.514;9.988;2023-06-14T13:04:10;28.30;52.30
14140;DHT22;7150;53.514;9.988;2023-06-14T13:06:36;28.20;52.40
14140;DHT22;7150;53.514;9.988;2023-06-14T13:09:01;28.20;52.40
14140;DHT22;7150;53.514;9.988;2023-06-14T13:11:29;28.20;52.60
14140;DHT22;7150;53.514;9.988;2023-06-14T13:13:54;28.20;51.90
14140;DHT22;7150;53.514;9.988;2023-06-14T13:16:20;28.20;51.20
14140;DHT22;7150;53.514;9.988;2023-06-14T13:18:45;28.30;50.80
14140;DHT22;7150;53.514;9.988;2023-06-14T13:21:11;28.30;50.70
14140;DHT22;7150;53.514;9.988;2023-06-14T13:23:36;28.40;51.00
14140;DHT22;7150;53.514;9.988;2023-06-14T13:26:02;28.40;51.40
14140;DHT22;7150;53.514;9.988;2023-06-14T13:28:27;28.30;51.50
14140;DHT22;7150;53.514;9.988;2023-06-14T13:30:53;28.30;51.70
14140;DHT22;7150;53.514;9.988;2023-06-14T13:33:19;28.30;51.90
14140;DHT22;7150;53.514;9.988;2023-06-14T13:35:45;28.30;51.90
14140;DHT22;7150;53.514;9.988;2023-06-14T13:38:10;28.20;52.10
14140;DHT22;7150;53.514;9.988;2023-06-14T13:40:36;28.10;52.10
14140;DHT22;7150;53.514;9.988;2023-06-14T13:43:02;28.00;52.20
14140;DHT22;7150;53.514;9.988;2023-06-14T13:45:27;28.10;52.30
14140;DHT22;7150;53.514;9.988;2023-06-14T13:47:53;28.10;52.10
14140;DHT22;7150;53.514;9.988;2023-06-14T13:50:19;28.20;51.70
14140;DHT22;7150;53.514;9.988;2023-06-14T13:52:45;28.30;51.40
14140;DHT22;7150;53.514;9.988;2023-06-14T13:55:10;28.50;51.60
14140;DHT22;7150;53.514;9.988;2023-06-14T13:57:36;28.60;51.80
14140;DHT22;7150;53.514;9.988;2023-06-14T14:00:01;28.70;51.60
14140;DHT22;7150;53.514;9.988;2023-06-14T14:02:29;28.70;51.80
14140;DHT22;7150;53.514;9.988;2023-06-14T14:04:55;28.80;51.90
14140;DHT22;7150;53.514;9.988;2023-06-14T14:07:21;28.80;51.90
14140;DHT22;7150;53.514;9.988;2023-06-14T14:09:47;28.90;51.60
14140;DHT22;7150;53.514;9.988;2023-06-14T14:12:13;28.80;51.30
14140;DHT22;7150;53.514;9.988;2023-06-14T14:14:39;28.80;51.40
14140;DHT22;7150;53.514;9.988;2023-06-14T14:17:05;28.90;51.50
14140;DHT22;7150;53.514;9.988;2023-06-14T14:19:32;29.00;51.40
14140;DHT22;7150;53.514;9.988;2023-06-14T14:21:57;29.10;51.30
14140;DHT22;7150;53.514;9.988;2023-06-14T14:24:23;29.30;51.10
14140;DHT22;7150;53.514;9.988;2023-06-14T14:26:48;29.40;51.00
14140;DHT22;7150;53.514;9.988;2023-06-14T14:29:15;29.60;50.90
14140;DHT22;7150;53.514;9.988;2023-06-14T14:31:41;29.70;50.30
14140;DHT22;7150;53.514;9.988;2023-06-14T14:34:06;29.60;50.10
14140;DHT22;7150;53.514;9.988;2023-06-14T14:36:32;29.50;50.10
14140;DHT22;7150;53.514;9.988;2023-06-14T14:38:59;29.40;49.80
14140;DHT22;7150;53.514;9.988;2023-06-14T14:41:25;29.20;49.70
14140;DHT22;7150;53.514;9.988;2023-06-14T14:43:50;29.20;50.00
14140;DHT22;7150;53.514;9.988;2023-06-14T14:46:16;29.20;49.90
14140;DHT22;7150;53.514;9.988;2023-06-14T14:48:42;29.30;49.50
14140;DHT22;7150;53.514;9.988;2023-06-14T14:51:07;29.50;49.50
14140;DHT22;7150;53.514;9.988;2023-06-14T14:53:33;29.70;49.60
14140;DHT22;7150;53.514;9.988;2023-06-14T14:55:58;29.80;49.20
14140;DHT22;7150;53.514;9.988;2023-06-14T14:58:24;29.90;49.40
14140;DHT22;7150;53.514;9.988;2023-06-14T15:00:49;30.10;49.20
14140;DHT22;7150;53.514;9.988;2023-06-14T15:03:15;30.40;48.50
14140;DHT22;7150;53.514;9.988;2023-06-14T15:05:40;30.80;48.10
14140;DHT22;7150;53.514;9.988;2023-06-14T15:08:06;31.40;46.50
14140;DHT22;7150;53.514;9.988;2023-06-14T15:10:38;32.00;46.20
14140;DHT22;7150;53.514;9.988;2023-06-14T15:13:09;32.80;45.90
14140;DHT22;7150;53.514;9.988;2023-06-14T15:15:35;34.00;44.40
14140;DHT22;7150;53.514;9.988;2023-06-14T15:18:01;35.00;43.20
14140;DHT22;7150;53.514;9.988;2023-06-14T15:20:27;35.40;42.20
14140;DHT22;7150;53.514;9.988;2023-06-14T15:22:53;35.40;42.50
14140;DHT22;7150;53.514;9.988;2023-06-14T15:25:21;35.00;42.40
14140;DHT22;7150;53.514;9.988;2023-06-14T15:27:46;35.40;41.90
14140;DHT22;7150;53.514;9.988;2023-06-14T15:30:12;36.30;41.40
14140;DHT22;7150;53.514;9.988;2023-06-14T15:32:37;37.40;40.00
14140;DHT22;7150;53.514;9.988;2023-06-14T15:35:03;38.40;39.20
14140;DHT22;7150;53.514;9.988;2023-06-14T15:37:29;39.30;38.20
14140;DHT22;7150;53.514;9.988;2023-06-14T15:39:55;39.30;37.50
14140;DHT22;7150;53.514;9.988;2023-06-14T15:42:20;39.00;37.90
14140;DHT22;7150;53.514;9.988;2023-06-14T15:44:46;39.00;38.50
14140;DHT22;7150;53.514;9.988;2023-06-14T15:47:13;38.90;38.40
14140;DHT22;7150;53.514;9.988;2023-06-14T15:49:38;38.20;38.50
14140;DHT22;7150;53.514;9.988;2023-06-14T15:52:04;37.20;39.10
14140;DHT22;7150;53.514;9.988;2023-06-14T15:54:29;36.50;40.10